createdAt,value
2023-04-11T00:01:38.526Z,11.40
2023-04-11T00:04:08.137Z,12.60
2023-04-11T00:06:36.362Z,12.60
2023-04-11T00:09:04.832Z,12.40
2023-04-11T00:11:33.231Z,11.20
2023-04-11T00:14:01.583Z,11.90
2023-04-11T00:16:29.631Z,13.70
2023-04-11T00:18:57.763Z,13.90
2023-04-11T00:21:26.112Z,17.00
2023-04-11T00:23:54.992Z,12.10
2023-04-11T00:26:23.071Z,14.10
2023-04-11T00:28:51.333Z,11.00
2023-04-11T00:31:19.339Z,17.50
2023-04-11T00:33:47.795Z,12.10
2023-04-11T00:36:16.520Z,12.00
2023-04-11T00:38:44.880Z,11.50
2023-04-11T00:41:13.022Z,9.10
2023-04-11T00:43:40.974Z,9.40
2023-04-11T00:46:09.745Z,10.40
2023-04-11T00:48:37.965Z,9.50
2023-04-11T00:51:06.634Z,10.70
2023-04-11T00:53:37.241Z,11.70
2023-04-11T00:56:06.953Z,13.00
2023-04-11T00:58:37.744Z,11.80
2023-04-11T01:01:09.612Z,10.50
2023-04-11T01:03:39.988Z,9.70
2023-04-11T01:06:11.549Z,9.70
2023-04-11T01:08:42.862Z,9.30
2023-04-11T01:11:12.896Z,14.20
2023-04-11T01:13:42.502Z,10.30
2023-04-11T01:16:11.482Z,11.50
2023-04-11T01:18:39.561Z,13.60
2023-04-11T01:21:09.805Z,11.10
2023-04-11T01:23:38.122Z,12.90
2023-04-11T01:26:06.776Z,9.30
2023-04-11T01:28:35.249Z,10.10
2023-04-11T01:31:03.959Z,11.70
2023-04-11T01:33:32.312Z,10.20
2023-04-11T01:36:00.824Z,11.60
2023-04-11T01:38:29.178Z,11.00
2023-04-11T01:40:58.376Z,9.70
2023-04-11T01:43:26.844Z,9.80
2023-04-11T01:45:55.112Z,10.50
2023-04-11T01:48:23.369Z,10.10
2023-04-11T01:50:52.084Z,9.70
2023-04-11T01:53:20.148Z,9.60
2023-04-11T01:55:48.233Z,10.40
2023-04-11T01:58:16.572Z,9.00
2023-04-11T02:00:44.571Z,12.00
2023-04-11T02:03:13.229Z,12.50
2023-04-11T02:05:42.626Z,14.60
2023-04-11T02:08:11.538Z,13.80
2023-04-11T02:10:39.709Z,12.00
2023-04-11T02:13:07.876Z,15.30
2023-04-11T02:15:35.927Z,15.00
2023-04-11T02:18:04.364Z,16.20
2023-04-11T02:20:33.018Z,15.70
2023-04-11T02:23:04.523Z,15.90
2023-04-11T02:25:32.926Z,14.50
2023-04-11T02:28:01.223Z,12.60
2023-04-11T02:30:29.388Z,14.00
2023-04-11T02:32:57.300Z,18.40
2023-04-11T02:35:26.417Z,21.00
2023-04-11T02:37:54.630Z,14.60
2023-04-11T02:40:22.724Z,14.30
2023-04-11T02:42:50.950Z,13.10
2023-04-11T02:45:19.154Z,14.20
2023-04-11T02:47:47.491Z,10.10
2023-04-11T02:50:15.807Z,13.10
2023-04-11T02:55:19.624Z,11.00
2023-04-11T02:57:47.688Z,11.60
2023-04-11T03:00:18.639Z,9.30
2023-04-11T03:02:50.549Z,8.50
2023-04-11T03:05:22.361Z,9.10
2023-04-11T03:07:51.759Z,8.70
2023-04-11T03:10:20.228Z,9.60
2023-04-11T03:12:48.323Z,8.60
2023-04-11T03:15:18.009Z,14.10
2023-04-11T03:17:46.038Z,10.70
2023-04-11T03:20:19.904Z,10.20
2023-04-11T03:22:50.723Z,10.30
2023-04-11T03:25:19.558Z,11.20
2023-04-11T03:27:49.155Z,12.00
2023-04-11T03:30:17.617Z,11.30
2023-04-11T03:32:48.169Z,13.20
2023-04-11T03:35:17.429Z,9.30
2023-04-11T03:37:47.999Z,11.90
2023-04-11T03:40:18.698Z,11.00
2023-04-11T03:42:51.087Z,10.00
2023-04-11T03:45:22.617Z,10.80
2023-04-11T03:47:54.035Z,10.20
2023-04-11T03:50:24.304Z,10.90
2023-04-11T03:52:56.623Z,10.60
2023-04-11T03:55:26.269Z,13.80
2023-04-11T03:57:54.747Z,10.60
2023-04-11T04:00:22.912Z,13.40
2023-04-11T04:02:59.296Z,15.70
2023-04-11T04:05:27.768Z,13.30
2023-04-11T04:07:56.328Z,13.20
2023-04-11T04:10:38.342Z,12.60
2023-04-11T04:13:06.533Z,13.90
2023-04-11T04:15:38.779Z,13.40
2023-04-11T04:18:07.235Z,12.70
2023-04-11T04:20:49.485Z,10.80
2023-04-11T04:23:18.340Z,10.10
2023-04-11T04:26:13.371Z,12.20
2023-04-11T04:28:46.335Z,13.40
2023-04-11T04:31:22.558Z,11.90
2023-04-11T04:33:52.132Z,14.80
2023-04-11T04:36:25.195Z,16.50
2023-04-11T04:38:54.816Z,14.20
2023-04-11T04:41:23.792Z,11.90
2023-04-11T04:43:58.580Z,15.90
2023-04-11T04:46:42.155Z,11.50
2023-04-11T04:49:10.837Z,11.70
2023-04-11T04:51:40.752Z,11.90
2023-04-11T04:54:08.923Z,12.10
2023-04-11T04:56:37.950Z,12.80
2023-04-11T04:59:06.508Z,14.00
2023-04-11T05:01:35.308Z,13.40
2023-04-11T05:04:06.024Z,12.40
2023-04-11T05:07:01.759Z,15.10
2023-04-11T05:09:30.633Z,13.00
2023-04-11T05:12:08.667Z,14.40
2023-04-11T05:14:37.936Z,14.60
2023-04-11T05:17:06.558Z,14.30
2023-04-11T05:19:35.944Z,14.30
2023-04-11T05:22:04.408Z,12.80
2023-04-11T05:24:33.897Z,23.80
2023-04-11T05:27:02.701Z,14.30
2023-04-11T05:29:31.274Z,14.60
2023-04-11T05:32:01.740Z,18.70
2023-04-11T05:34:32.319Z,16.60
2023-04-11T05:37:01.398Z,19.00
2023-04-11T05:39:29.319Z,18.10
2023-04-11T05:41:57.878Z,16.70
2023-04-11T05:44:26.127Z,18.40
2023-04-11T05:46:54.094Z,15.50
2023-04-11T05:49:22.256Z,14.10
2023-04-11T05:51:50.371Z,14.20
2023-04-11T05:54:35.802Z,19.10
2023-04-11T05:57:04.015Z,15.10
2023-04-11T05:59:32.703Z,13.00
2023-04-11T06:02:01.829Z,11.20
2023-04-11T06:04:30.092Z,12.20
2023-04-11T06:06:58.644Z,13.00
2023-04-11T06:09:26.937Z,13.90
2023-04-11T06:11:55.305Z,9.30
2023-04-11T06:14:23.480Z,9.20
2023-04-11T06:16:51.545Z,9.30
2023-04-11T06:19:19.717Z,8.70
2023-04-11T06:21:47.893Z,9.90
2023-04-11T06:24:18.826Z,9.80
2023-04-11T06:26:46.902Z,9.40
2023-04-11T06:29:15.494Z,9.00
2023-04-11T06:31:43.617Z,14.10
2023-04-11T06:34:11.938Z,7.60
2023-04-11T06:36:42.752Z,9.10
2023-04-11T06:39:11.081Z,8.90
2023-04-11T06:41:39.321Z,8.00
2023-04-11T06:44:07.415Z,8.10
2023-04-11T06:46:35.674Z,9.30
2023-04-11T06:49:03.836Z,7.50
2023-04-11T06:51:32.023Z,7.70
2023-04-11T06:54:00.118Z,8.00
2023-04-11T06:56:28.360Z,9.30
2023-04-11T06:58:56.365Z,8.00
2023-04-11T07:01:30.994Z,6.20
2023-04-11T07:03:59.719Z,8.80
2023-04-11T07:06:28.932Z,7.50
2023-04-11T07:08:57.119Z,8.30
2023-04-11T07:11:25.794Z,8.30
2023-04-11T07:13:56.205Z,7.70
2023-04-11T07:16:24.727Z,6.90
2023-04-11T07:18:53.893Z,7.50
2023-04-11T07:21:22.276Z,8.20
2023-04-11T07:23:50.441Z,7.70
2023-04-11T07:26:18.523Z,7.60
2023-04-11T07:28:47.721Z,8.40
2023-04-11T07:31:18.269Z,7.70
2023-04-11T07:33:46.425Z,8.20
2023-04-11T07:36:14.630Z,10.20
2023-04-11T07:38:42.730Z,8.60
2023-04-11T07:41:11.045Z,10.60
2023-04-11T07:43:39.615Z,11.20
2023-04-11T07:46:08.148Z,10.00
2023-04-11T07:48:36.476Z,10.60
2023-04-11T07:51:04.749Z,9.50
2023-04-11T07:53:33.464Z,12.20
2023-04-11T07:56:01.672Z,11.10
2023-04-11T07:58:30.400Z,12.80
2023-04-11T08:00:59.176Z,12.10
2023-04-11T08:03:27.457Z,11.70
2023-04-11T08:05:56.252Z,10.30
2023-04-11T08:08:24.315Z,13.80
2023-04-11T08:10:52.524Z,12.10
2023-04-11T08:13:20.565Z,12.40
2023-04-11T08:15:48.838Z,6.60
2023-04-11T08:18:16.947Z,9.60
2023-04-11T08:20:44.851Z,9.60
2023-04-11T08:23:12.844Z,9.80
2023-04-11T08:25:42.124Z,10.10
2023-04-11T08:28:11.650Z,10.10
2023-04-11T08:30:39.834Z,7.70
2023-04-11T08:33:09.643Z,6.10
2023-04-11T08:35:38.262Z,7.90
2023-04-11T08:38:06.773Z,6.40
2023-04-11T08:40:35.701Z,6.30
2023-04-11T08:43:10.114Z,8.20
2023-04-11T08:45:42.716Z,9.00
2023-04-11T08:48:12.650Z,6.80
2023-04-11T08:50:42.465Z,7.20
2023-04-11T08:53:10.821Z,9.50
2023-04-11T08:55:48.597Z,10.70
2023-04-11T08:58:17.059Z,6.20
2023-04-11T09:00:46.002Z,8.90
2023-04-11T09:03:17.878Z,5.90
2023-04-11T09:08:16.856Z,4.90
2023-04-11T09:10:45.876Z,7.20
2023-04-11T09:13:25.018Z,5.00
2023-04-11T09:16:09.200Z,4.70
2023-04-11T09:18:43.100Z,5.80
2023-04-11T09:21:13.938Z,5.60
2023-04-11T09:23:42.633Z,6.30
2023-04-11T09:26:11.901Z,5.70
2023-04-11T09:28:45.579Z,7.60
2023-04-11T09:31:13.858Z,5.90
2023-04-11T09:33:56.220Z,4.40
2023-04-11T09:36:29.300Z,4.90
2023-04-11T09:38:59.423Z,4.80
2023-04-11T09:41:35.063Z,5.50
2023-04-11T09:44:03.020Z,6.30
2023-04-11T09:46:31.035Z,5.60
2023-04-11T09:49:01.629Z,4.80
2023-04-11T09:51:36.538Z,6.10
2023-04-11T09:54:06.273Z,7.10
2023-04-11T09:56:35.263Z,5.40
2023-04-11T09:59:04.662Z,7.70
2023-04-11T10:01:33.477Z,5.40
2023-04-11T10:04:01.771Z,8.30
2023-04-11T10:06:48.629Z,5.20
2023-04-11T10:09:17.024Z,4.80
2023-04-11T10:11:48.499Z,4.00
2023-04-11T10:14:38.591Z,4.10
2023-04-11T10:17:22.659Z,4.40
2023-04-11T10:19:57.127Z,5.20
2023-04-11T10:22:51.501Z,3.80
2023-04-11T10:25:19.703Z,3.80
2023-04-11T10:28:00.876Z,3.80
2023-04-11T10:30:41.326Z,3.10
2023-04-11T10:33:10.415Z,5.20
2023-04-11T10:36:02.350Z,3.20
2023-04-11T10:38:48.860Z,3.80
2023-04-11T10:41:25.835Z,5.70
2023-04-11T10:44:18.581Z,6.40
2023-04-11T10:46:48.997Z,5.10
2023-04-11T10:49:33.147Z,4.20
2023-04-11T10:52:22.265Z,3.90
2023-04-11T10:54:52.512Z,3.30
2023-04-11T10:57:21.723Z,4.40
2023-04-11T10:59:49.694Z,3.50
2023-04-11T11:02:20.131Z,3.70
2023-04-11T11:04:49.391Z,2.50
2023-04-11T11:07:17.700Z,3.00
2023-04-11T11:09:51.073Z,3.50
2023-04-11T11:12:19.372Z,3.70
2023-04-11T11:14:47.841Z,3.00
2023-04-11T11:17:17.281Z,3.20
2023-04-11T11:19:46.516Z,3.10
2023-04-11T11:22:16.161Z,3.20
2023-04-11T11:24:44.461Z,2.80
2023-04-11T11:27:23.591Z,2.80
2023-04-11T11:29:53.137Z,2.60
2023-04-11T11:32:28.382Z,4.10
2023-04-11T11:34:57.936Z,2.80
2023-04-11T11:37:26.205Z,2.60
2023-04-11T11:39:54.489Z,2.60
2023-04-11T11:42:22.639Z,3.50
2023-04-11T11:44:51.517Z,3.00
2023-04-11T11:47:19.481Z,2.60
2023-04-11T11:49:52.517Z,2.70
2023-04-11T11:52:33.541Z,2.70
2023-04-11T11:55:09.597Z,3.20
2023-04-11T11:57:45.572Z,3.60
2023-04-11T12:00:15.140Z,3.00
2023-04-11T12:02:44.434Z,2.90
2023-04-11T12:05:13.626Z,2.40
2023-04-11T12:07:41.951Z,2.50
2023-04-11T12:10:15.402Z,4.10
2023-04-11T12:12:54.020Z,2.50
2023-04-11T12:15:26.619Z,2.60
2023-04-11T12:17:57.590Z,4.10
2023-04-11T12:20:27.347Z,3.60
2023-04-11T12:22:56.461Z,3.80
2023-04-11T12:25:26.140Z,3.70
2023-04-11T12:27:54.469Z,3.60
2023-04-11T12:30:22.841Z,4.50
2023-04-11T12:32:51.219Z,3.50
2023-04-11T12:35:19.877Z,3.60
2023-04-11T12:37:48.078Z,4.10
2023-04-11T12:40:16.150Z,3.60
2023-04-11T12:42:56.185Z,3.10
2023-04-11T12:45:26.338Z,3.70
2023-04-11T12:47:54.609Z,2.90
2023-04-11T12:50:25.626Z,3.00
2023-04-11T12:52:54.040Z,3.90
2023-04-11T12:55:23.756Z,3.60
2023-04-11T12:57:51.989Z,3.90
2023-04-11T13:00:20.380Z,3.90
2023-04-11T13:02:48.820Z,3.10
2023-04-11T13:05:17.549Z,2.90
2023-04-11T13:07:46.262Z,2.80
2023-04-11T13:10:16.391Z,3.70
2023-04-11T13:12:45.725Z,3.00
2023-04-11T13:15:16.901Z,3.80
2023-04-11T13:17:45.126Z,4.10
2023-04-11T13:20:13.441Z,3.50
2023-04-11T13:22:43.354Z,3.30
2023-04-11T13:25:12.560Z,3.70
2023-04-11T13:27:42.329Z,3.90
2023-04-11T13:30:11.507Z,3.50
2023-04-11T13:32:39.858Z,6.80
2023-04-11T13:35:11.382Z,2.80
2023-04-11T13:37:49.314Z,5.30
2023-04-11T13:40:17.549Z,5.60
2023-04-11T13:42:46.257Z,3.80
2023-04-11T13:45:14.450Z,5.70
2023-04-11T13:47:42.474Z,2.90
2023-04-11T13:50:10.776Z,4.80
2023-04-11T13:52:39.957Z,4.00
2023-04-11T13:55:08.640Z,3.80
2023-04-11T13:57:36.613Z,4.40
2023-04-11T14:00:11.825Z,3.40
2023-04-11T14:02:41.549Z,4.70
2023-04-11T14:05:13.280Z,5.00
2023-04-11T14:07:41.703Z,3.10
2023-04-11T14:10:10.144Z,4.20
2023-04-11T14:12:38.460Z,3.50
2023-04-11T14:15:08.015Z,3.30
2023-04-11T14:17:36.786Z,4.30
2023-04-11T14:20:07.095Z,3.40
2023-04-11T14:22:36.056Z,3.30
2023-04-11T14:25:05.628Z,4.80
2023-04-11T14:27:33.751Z,4.20
2023-04-11T14:30:01.851Z,3.00
2023-04-11T14:32:30.058Z,4.60
2023-04-11T14:34:59.095Z,3.80
2023-04-11T14:37:28.180Z,3.40
2023-04-11T14:39:56.444Z,6.00
2023-04-11T14:42:24.518Z,2.80
2023-04-11T14:44:53.608Z,5.20
2023-04-11T14:47:23.069Z,4.70
2023-04-11T14:49:51.159Z,3.70
2023-04-11T14:52:19.146Z,3.70
2023-04-11T14:54:47.327Z,3.60
2023-04-11T14:57:15.834Z,4.60
2023-04-11T14:59:44.238Z,4.60
2023-04-11T15:02:12.803Z,3.50
2023-04-11T15:04:41.136Z,3.00
2023-04-11T15:07:09.452Z,3.70
2023-04-11T15:09:37.462Z,4.30
2023-04-11T15:12:05.943Z,4.20
2023-04-11T15:14:33.927Z,3.30
2023-04-11T15:17:02.012Z,4.80
2023-04-11T15:19:30.080Z,5.40
2023-04-11T15:21:58.148Z,5.00
2023-04-11T15:24:26.221Z,5.90
2023-04-11T15:26:54.304Z,4.10
2023-04-11T15:29:22.365Z,4.90
2023-04-11T15:31:50.602Z,4.60
2023-04-11T15:34:18.923Z,6.60
2023-04-11T15:36:47.290Z,4.60
2023-04-11T15:39:16.194Z,4.50
2023-04-11T15:41:44.420Z,4.20
2023-04-11T15:44:12.527Z,5.20
2023-04-11T15:46:41.192Z,4.70
2023-04-11T15:49:09.315Z,4.40
2023-04-11T15:51:37.353Z,5.80
2023-04-11T15:54:05.832Z,5.30
2023-04-11T15:56:34.208Z,6.30
2023-04-11T15:59:02.288Z,5.80
2023-04-11T16:01:31.229Z,8.20
2023-04-11T16:03:59.949Z,7.90
2023-04-11T16:06:28.495Z,6.40
2023-04-11T16:08:56.818Z,5.70
2023-04-11T16:11:25.208Z,5.70
2023-04-11T16:13:53.290Z,6.60
2023-04-11T16:16:21.407Z,6.80
2023-04-11T16:18:49.705Z,6.60
2023-04-11T16:21:17.980Z,7.00
2023-04-11T16:23:46.264Z,5.10
2023-04-11T16:26:14.508Z,5.00
2023-04-11T16:28:42.502Z,8.50
2023-04-11T16:31:11.197Z,6.20
2023-04-11T16:33:39.312Z,4.90
2023-04-11T16:36:08.048Z,5.50
2023-04-11T16:38:36.125Z,6.80
2023-04-11T16:41:04.573Z,6.70
2023-04-11T16:43:32.779Z,6.90
2023-04-11T16:46:00.950Z,8.00
2023-04-11T16:48:30.679Z,7.90
2023-04-11T16:50:58.820Z,6.80
2023-04-11T16:53:26.911Z,7.40
2023-04-11T16:55:57.265Z,5.80
2023-04-11T16:58:25.410Z,7.00
2023-04-11T17:00:54.316Z,6.40
2023-04-11T17:03:22.606Z,8.00
2023-04-11T17:05:51.348Z,6.70
2023-04-11T17:08:19.426Z,8.60
2023-04-11T17:10:47.497Z,6.80
2023-04-11T17:13:18.605Z,6.60
2023-04-11T17:15:47.114Z,11.80
2023-04-11T17:18:15.498Z,7.70
2023-04-11T17:20:46.520Z,5.60
2023-04-11T17:23:14.719Z,8.70
2023-04-11T17:25:42.781Z,4.90
2023-04-11T17:28:11.711Z,5.20
2023-04-11T17:30:39.855Z,9.30
2023-04-11T17:33:08.733Z,8.40
2023-04-11T17:35:37.040Z,8.40
2023-04-11T17:38:05.078Z,8.00
2023-04-11T17:40:33.136Z,9.10
2023-04-11T17:43:01.289Z,5.70
2023-04-11T17:45:30.314Z,6.00
2023-04-11T17:47:59.329Z,6.90
2023-04-11T17:50:29.515Z,7.30
2023-04-11T17:52:57.698Z,6.50
2023-04-11T17:55:25.832Z,6.20
2023-04-11T17:57:54.083Z,6.80
2023-04-11T18:00:23.497Z,7.80
2023-04-11T18:02:57.927Z,8.10
2023-04-11T18:05:33.661Z,9.60
2023-04-11T18:08:05.136Z,9.80
2023-04-11T18:10:33.823Z,10.90
2023-04-11T18:13:03.553Z,6.90
2023-04-11T18:15:33.175Z,8.00
2023-04-11T18:18:04.221Z,7.00
2023-04-11T18:20:32.393Z,6.30
2023-04-11T18:23:01.306Z,8.40
2023-04-11T18:25:30.261Z,8.60
2023-04-11T18:28:01.407Z,7.40
2023-04-11T18:30:29.580Z,9.10
2023-04-11T18:32:58.204Z,8.50
2023-04-11T18:35:26.748Z,6.50
2023-04-11T18:37:55.027Z,12.10
2023-04-11T18:40:23.301Z,7.10
2023-04-11T18:42:53.022Z,7.00
2023-04-11T18:45:23.412Z,6.70
2023-04-11T18:47:51.942Z,4.70
2023-04-11T18:50:20.429Z,6.70
2023-04-11T18:52:53.544Z,6.70
2023-04-11T18:55:24.734Z,6.00
2023-04-11T18:57:57.464Z,5.50
2023-04-11T19:00:30.870Z,5.10
2023-04-11T19:02:59.150Z,5.90
2023-04-11T19:05:28.254Z,6.30
2023-04-11T19:07:56.855Z,8.50
2023-04-11T19:10:25.105Z,9.60
2023-04-11T19:12:53.301Z,8.30
2023-04-11T19:15:21.430Z,9.00
2023-04-11T19:17:52.934Z,8.40
2023-04-11T19:20:21.718Z,8.20
2023-04-11T19:22:51.031Z,10.00
2023-04-11T19:25:19.561Z,7.90
2023-04-11T19:27:48.108Z,10.30
2023-04-11T19:30:16.556Z,11.80
2023-04-11T19:32:47.670Z,12.00
2023-04-11T19:35:17.200Z,11.40
2023-04-11T19:37:45.484Z,9.70
2023-04-11T19:40:14.009Z,10.00
2023-04-11T19:42:43.318Z,11.30
2023-04-11T19:45:12.552Z,9.80
2023-04-11T19:47:41.570Z,8.60
2023-04-11T19:50:13.241Z,9.80
2023-04-11T19:52:43.349Z,13.60
2023-04-11T19:55:12.602Z,9.50
2023-04-11T19:57:43.977Z,9.60
2023-04-11T20:00:14.146Z,10.20
2023-04-11T20:02:48.150Z,8.80
2023-04-11T20:05:22.441Z,7.80
2023-04-11T20:07:50.598Z,7.60
2023-04-11T20:10:18.673Z,5.90
2023-04-11T20:12:47.053Z,8.60
2023-04-11T20:15:15.320Z,7.30
2023-04-11T20:17:45.842Z,7.30
2023-04-11T20:20:15.436Z,7.00
2023-04-11T20:22:45.135Z,6.80
2023-04-11T20:25:13.874Z,7.40
2023-04-11T20:27:42.808Z,7.40
2023-04-11T20:30:12.371Z,6.80
2023-04-11T20:32:41.637Z,4.90
2023-04-11T20:35:14.066Z,7.00
2023-04-11T20:37:43.829Z,6.20
2023-04-11T20:40:14.176Z,9.30
2023-04-11T20:42:45.507Z,8.20
2023-04-11T20:45:15.951Z,7.30
2023-04-11T20:47:49.802Z,8.80
2023-04-11T20:50:19.614Z,10.70
2023-04-11T20:52:53.154Z,7.80
2023-04-11T20:55:21.414Z,6.90
2023-04-11T20:57:49.684Z,10.40
2023-04-11T21:00:18.975Z,11.00
2023-04-11T21:02:50.546Z,10.40
2023-04-11T21:05:22.094Z,9.20
2023-04-11T21:07:50.364Z,9.40
2023-04-11T21:10:21.110Z,9.70
2023-04-11T21:12:51.971Z,10.70
2023-04-11T21:15:21.384Z,11.20
2023-04-11T21:17:50.483Z,9.60
2023-04-11T21:20:19.583Z,9.70
2023-04-11T21:22:49.672Z,9.50
2023-04-11T21:25:17.821Z,10.20
2023-04-11T21:27:46.921Z,8.70
2023-04-11T21:30:15.209Z,8.20
2023-04-11T21:32:43.609Z,8.40
2023-04-11T21:35:12.677Z,11.10
2023-04-11T21:37:40.855Z,9.30
2023-04-11T21:40:09.456Z,6.80
2023-04-11T21:42:37.574Z,6.40
2023-04-11T21:45:06.606Z,6.40
2023-04-11T21:47:34.678Z,6.20
2023-04-11T21:50:02.657Z,9.50
2023-04-11T21:52:30.681Z,8.00
2023-04-11T21:54:59.060Z,6.10
2023-04-11T21:57:27.343Z,5.80
2023-04-11T21:59:55.706Z,5.70
2023-04-11T22:02:23.781Z,7.60
2023-04-11T22:05:05.623Z,7.70
2023-04-11T22:07:38.975Z,4.80
2023-04-11T22:10:11.657Z,5.40
2023-04-11T22:12:42.063Z,6.00
2023-04-11T22:15:12.853Z,6.20
2023-04-11T22:17:42.701Z,6.70
2023-04-11T22:20:11.479Z,6.90
2023-04-11T22:22:39.685Z,9.30
2023-04-11T22:25:08.595Z,6.20
2023-04-11T22:27:36.790Z,5.60
2023-04-11T22:30:05.680Z,5.40
2023-04-11T22:32:34.125Z,6.60
2023-04-11T22:35:02.642Z,7.60
2023-04-11T22:37:30.877Z,7.00
2023-04-11T22:39:59.049Z,6.60
2023-04-11T22:42:27.125Z,5.80
2023-04-11T22:44:55.801Z,6.20
2023-04-11T22:47:23.984Z,7.20
2023-04-11T22:49:52.024Z,9.10
2023-04-11T22:52:26.251Z,7.60
2023-04-11T22:54:55.965Z,7.30
2023-04-11T22:57:24.160Z,5.80
2023-04-11T22:59:52.634Z,6.90
2023-04-11T23:02:20.793Z,6.50
2023-04-11T23:04:48.863Z,6.10
2023-04-11T23:07:17.134Z,7.80
2023-04-11T23:09:45.311Z,6.70
2023-04-11T23:12:13.372Z,7.60
2023-04-11T23:14:41.322Z,6.80
2023-04-11T23:17:09.370Z,7.50
2023-04-11T23:19:37.706Z,6.60
2023-04-11T23:22:06.492Z,7.70
2023-04-11T23:24:34.644Z,6.80
2023-04-11T23:27:02.930Z,9.30
2023-04-11T23:29:31.362Z,6.80
2023-04-11T23:31:59.272Z,7.90
2023-04-11T23:34:27.256Z,5.80
2023-04-11T23:36:55.312Z,5.60
2023-04-11T23:39:24.068Z,7.60
2023-04-11T23:41:52.778Z,5.50
2023-04-11T23:44:20.757Z,7.80
2023-04-11T23:46:49.029Z,7.30
2023-04-11T23:49:17.000Z,7.60
2023-04-11T23:51:45.070Z,6.00
2023-04-11T23:54:13.342Z,8.30
2023-04-11T23:56:41.836Z,6.30
2023-04-11T23:59:10.517Z,6.90
